sensor_id;sensor_type;location;lat;lon;timestamp;P1;durP1;ratioP1;P2;durP2;ratioP2
17854;SDS011;9053;53.358;6.382;2024-03-06T00:02:16;29.20;;;11.47;;
17854;SDS011;9053;53.358;6.382;2024-03-06T00:04:46;17.90;;;10.40;;
17854;SDS011;9053;53.358;6.382;2024-03-06T00:07:16;17.57;;;10.40;;
17854;SDS011;9053;53.358;6.382;2024-03-06T00:09:49;16.47;;;10.40;;
17854;SDS011;9053;53.358;6.382;2024-03-06T00:12:19;16.87;;;9.73;;
17854;SDS011;9053;53.358;6.382;2024-03-06T00:14:49;16.00;;;10.03;;
17854;SDS011;9053;53.358;6.382;2024-03-06T00:17:19;19.93;;;10.20;;
17854;SDS011;9053;53.358;6.382;2024-03-06T00:19:49;19.00;;;10.07;;
17854;SDS011;9053;53.358;6.382;2024-03-06T00:22:19;15.57;;;9.97;;
17854;SDS011;9053;53.358;6.382;2024-03-06T00:24:52;20.03;;;9.87;;
17854;SDS011;9053;53.358;6.382;2024-03-06T00:27:22;16.90;;;9.97;;
17854;SDS011;9053;53.358;6.382;2024-03-06T00:29:52;15.33;;;9.57;;
17854;SDS011;9053;53.358;6.382;2024-03-06T00:32:22;17.40;;;10.03;;
17854;SDS011;9053;53.358;6.382;2024-03-06T00:34:52;15.87;;;9.87;;
17854;SDS011;9053;53.358;6.382;2024-03-06T00:37:23;17.43;;;10.13;;
17854;SDS011;9053;53.358;6.382;2024-03-06T00:39:55;19.10;;;10.83;;
17854;SDS011;9053;53.358;6.382;2024-03-06T00:42:25;16.10;;;10.37;;
17854;SDS011;9053;53.358;6.382;2024-03-06T00:44:55;14.87;;;9.37;;
17854;SDS011;9053;53.358;6.382;2024-03-06T00:47:25;18.33;;;9.80;;
17854;SDS011;9053;53.358;6.382;2024-03-06T00:49:55;18.03;;;10.27;;
17854;SDS011;9053;53.358;6.382;2024-03-06T00:52:25;18.80;;;11.30;;
17854;SDS011;9053;53.358;6.382;2024-03-06T00:54:58;18.00;;;10.90;;
17854;SDS011;9053;53.358;6.382;2024-03-06T00:57:28;20.77;;;11.17;;
17854;SDS011;9053;53.358;6.382;2024-03-06T00:59:58;19.93;;;10.30;;
17854;SDS011;9053;53.358;6.382;2024-03-06T01:02:33;16.27;;;10.33;;
17854;SDS011;9053;53.358;6.382;2024-03-06T01:05:03;20.03;;;11.67;;
17854;SDS011;9053;53.358;6.382;2024-03-06T01:07:34;20.00;;;11.27;;
17854;SDS011;9053;53.358;6.382;2024-03-06T01:10:08;21.53;;;10.77;;
17854;SDS011;9053;53.358;6.382;2024-03-06T01:12:38;18.90;;;11.03;;
17854;SDS011;9053;53.358;6.382;2024-03-06T01:15:12;18.80;;;10.83;;
17854;SDS011;9053;53.358;6.382;2024-03-06T01:17:42;19.00;;;10.17;;
17854;SDS011;9053;53.358;6.382;2024-03-06T01:20:13;20.77;;;11.43;;
17854;SDS011;9053;53.358;6.382;2024-03-06T01:22:43;20.20;;;11.13;;
17854;SDS011;9053;53.358;6.382;2024-03-06T01:25:16;19.33;;;10.40;;
17854;SDS011;9053;53.358;6.382;2024-03-06T01:27:47;17.93;;;10.97;;
17854;SDS011;9053;53.358;6.382;2024-03-06T01:30:17;18.30;;;11.23;;
17854;SDS011;9053;53.358;6.382;2024-03-06T01:32:47;19.27;;;10.83;;
17854;SDS011;9053;53.358;6.382;2024-03-06T01:35:18;18.23;;;10.47;;
17854;SDS011;9053;53.358;6.382;2024-03-06T01:37:48;17.30;;;10.50;;
17854;SDS011;9053;53.358;6.382;2024-03-06T01:40:20;18.33;;;10.23;;
17854;SDS011;9053;53.358;6.382;2024-03-06T01:42:50;17.47;;;10.47;;
17854;SDS011;9053;53.358;6.382;2024-03-06T01:45:20;19.53;;;10.73;;
17854;SDS011;9053;53.358;6.382;2024-03-06T01:47:51;21.43;;;10.80;;
17854;SDS011;9053;53.358;6.382;2024-03-06T01:50:21;16.60;;;10.80;;
17854;SDS011;9053;53.358;6.382;2024-03-06T01:52:51;18.57;;;11.30;;
17854;SDS011;9053;53.358;6.382;2024-03-06T01:55:24;20.40;;;11.40;;
17854;SDS011;9053;53.358;6.382;2024-03-06T01:57:55;19.17;;;11.00;;
17854;SDS011;9053;53.358;6.382;2024-03-06T02:00:25;20.70;;;10.50;;
17854;SDS011;9053;53.358;6.382;2024-03-06T02:02:57;16.40;;;10.00;;
17854;SDS011;9053;53.358;6.382;2024-03-06T02:05:27;19.30;;;11.57;;
17854;SDS011;9053;53.358;6.382;2024-03-06T02:07:59;19.77;;;11.00;;
17854;SDS011;9053;53.358;6.382;2024-03-06T02:10:32;17.30;;;10.87;;
17854;SDS011;9053;53.358;6.382;2024-03-06T02:13:03;19.70;;;11.57;;
17854;SDS011;9053;53.358;6.382;2024-03-06T02:15:33;17.67;;;10.27;;
17854;SDS011;9053;53.358;6.382;2024-03-06T02:18:04;21.77;;;12.37;;
17854;SDS011;9053;53.358;6.382;2024-03-06T02:20:40;21.03;;;11.37;;
17854;SDS011;9053;53.358;6.382;2024-03-06T02:23:12;18.53;;;11.03;;
17854;SDS011;9053;53.358;6.382;2024-03-06T02:25:44;21.00;;;12.03;;
17854;SDS011;9053;53.358;6.382;2024-03-06T02:28:15;19.80;;;11.67;;
17854;SDS011;9053;53.358;6.382;2024-03-06T02:30:49;19.63;;;11.67;;
17854;SDS011;9053;53.358;6.382;2024-03-06T02:33:19;19.27;;;11.30;;
17854;SDS011;9053;53.358;6.382;2024-03-06T02:35:52;19.97;;;11.20;;
17854;SDS011;9053;53.358;6.382;2024-03-06T02:38:22;19.60;;;11.40;;
17854;SDS011;9053;53.358;6.382;2024-03-06T02:40:52;19.57;;;11.67;;
17854;SDS011;9053;53.358;6.382;2024-03-06T02:43:22;16.63;;;11.40;;
17854;SDS011;9053;53.358;6.382;2024-03-06T02:45:52;23.33;;;12.17;;
17854;SDS011;9053;53.358;6.382;2024-03-06T02:48:22;20.77;;;11.97;;
17854;SDS011;9053;53.358;6.382;2024-03-06T02:50:57;19.43;;;11.83;;
17854;SDS011;9053;53.358;6.382;2024-03-06T02:53:29;21.10;;;12.33;;
17854;SDS011;9053;53.358;6.382;2024-03-06T02:55:59;20.67;;;12.43;;
17854;SDS011;9053;53.358;6.382;2024-03-06T02:58:29;21.80;;;12.17;;
17854;SDS011;9053;53.358;6.382;2024-03-06T03:00:59;22.23;;;12.17;;
17854;SDS011;9053;53.358;6.382;2024-03-06T03:03:29;23.23;;;12.93;;
17854;SDS011;9053;53.358;6.382;2024-03-06T03:06:02;23.23;;;13.17;;
17854;SDS011;9053;53.358;6.382;2024-03-06T03:08:32;20.23;;;12.60;;
17854;SDS011;9053;53.358;6.382;2024-03-06T03:11:02;19.97;;;12.13;;
17854;SDS011;9053;53.358;6.382;2024-03-06T03:13:32;20.23;;;12.63;;
17854;SDS011;9053;53.358;6.382;2024-03-06T03:16:03;21.07;;;11.97;;
17854;SDS011;9053;53.358;6.382;2024-03-06T03:18:33;23.17;;;12.77;;
17854;SDS011;9053;53.358;6.382;2024-03-06T03:21:08;18.80;;;12.70;;
17854;SDS011;9053;53.358;6.382;2024-03-06T03:23:38;21.93;;;13.17;;
17854;SDS011;9053;53.358;6.382;2024-03-06T03:26:09;22.43;;;12.97;;
17854;SDS011;9053;53.358;6.382;2024-03-06T03:28:40;20.33;;;12.27;;
17854;SDS011;9053;53.358;6.382;2024-03-06T03:31:10;21.47;;;13.27;;
17854;SDS011;9053;53.358;6.382;2024-03-06T03:33:40;20.23;;;12.17;;
17854;SDS011;9053;53.358;6.382;2024-03-06T03:36:10;22.10;;;13.10;;
17854;SDS011;9053;53.358;6.382;2024-03-06T03:38:40;20.43;;;12.67;;
17854;SDS011;9053;53.358;6.382;2024-03-06T03:41:11;19.73;;;12.60;;
17854;SDS011;9053;53.358;6.382;2024-03-06T03:43:43;22.70;;;13.23;;
17854;SDS011;9053;53.358;6.382;2024-03-06T03:46:13;21.93;;;13.20;;
17854;SDS011;9053;53.358;6.382;2024-03-06T03:48:43;21.87;;;12.57;;
17854;SDS011;9053;53.358;6.382;2024-03-06T03:51:16;19.73;;;12.07;;
17854;SDS011;9053;53.358;6.382;2024-03-06T03:53:46;21.70;;;12.63;;
17854;SDS011;9053;53.358;6.382;2024-03-06T03:56:19;21.73;;;13.17;;
17854;SDS011;9053;53.358;6.382;2024-03-06T03:58:50;22.10;;;12.27;;
17854;SDS011;9053;53.358;6.382;2024-03-06T04:01:20;20.00;;;12.33;;
17854;SDS011;9053;53.358;6.382;2024-03-06T04:03:50;17.53;;;11.73;;
17854;SDS011;9053;53.358;6.382;2024-03-06T04:06:23;23.90;;;12.87;;
17854;SDS011;9053;53.358;6.382;2024-03-06T04:08:53;19.17;;;12.30;;
17854;SDS011;9053;53.358;6.382;2024-03-06T04:11:23;20.13;;;12.30;;
17854;SDS011;9053;53.358;6.382;2024-03-06T04:13:53;18.73;;;11.93;;
17854;SDS011;9053;53.358;6.382;2024-03-06T04:16:23;19.87;;;11.80;;
17854;SDS011;9053;53.358;6.382;2024-03-06T04:18:56;20.90;;;12.57;;
17854;SDS011;9053;53.358;6.382;2024-03-06T04:21:28;18.73;;;11.67;;
17854;SDS011;9053;53.358;6.382;2024-03-06T04:23:58;20.77;;;11.90;;
17854;SDS011;9053;53.358;6.382;2024-03-06T04:26:28;19.27;;;12.27;;
17854;SDS011;9053;53.358;6.382;2024-03-06T04:28:58;18.27;;;11.63;;
17854;SDS011;9053;53.358;6.382;2024-03-06T04:31:29;18.50;;;12.30;;
17854;SDS011;9053;53.358;6.382;2024-03-06T04:33:59;25.40;;;12.67;;
17854;SDS011;9053;53.358;6.382;2024-03-06T04:36:32;18.97;;;11.90;;
17854;SDS011;9053;53.358;6.382;2024-03-06T04:39:02;22.20;;;12.63;;
17854;SDS011;9053;53.358;6.382;2024-03-06T04:41:34;21.03;;;11.70;;
17854;SDS011;9053;53.358;6.382;2024-03-06T04:44:04;22.60;;;12.13;;
17854;SDS011;9053;53.358;6.382;2024-03-06T04:46:34;22.73;;;12.40;;
17854;SDS011;9053;53.358;6.382;2024-03-06T04:49:04;21.77;;;12.87;;
17854;SDS011;9053;53.358;6.382;2024-03-06T04:51:37;19.57;;;12.13;;
17854;SDS011;9053;53.358;6.382;2024-03-06T04:54:09;21.97;;;12.43;;
17854;SDS011;9053;53.358;6.382;2024-03-06T04:56:39;22.40;;;12.63;;
17854;SDS011;9053;53.358;6.382;2024-03-06T04:59:09;20.10;;;11.80;;
17854;SDS011;9053;53.358;6.382;2024-03-06T05:01:39;20.13;;;12.57;;
17854;SDS011;9053;53.358;6.382;2024-03-06T05:04:10;22.80;;;12.47;;
17854;SDS011;9053;53.358;6.382;2024-03-06T05:06:56;22.97;;;12.13;;
17854;SDS011;9053;53.358;6.382;2024-03-06T05:09:40;21.00;;;12.93;;
17854;SDS011;9053;53.358;6.382;2024-03-06T05:12:24;19.43;;;12.47;;
17854;SDS011;9053;53.358;6.382;2024-03-06T05:15:09;23.00;;;13.50;;
17854;SDS011;9053;53.358;6.382;2024-03-06T05:17:53;22.80;;;13.20;;
17854;SDS011;9053;53.358;6.382;2024-03-06T05:20:37;23.17;;;14.07;;
17854;SDS011;9053;53.358;6.382;2024-03-06T05:23:23;21.33;;;13.07;;
17854;SDS011;9053;53.358;6.382;2024-03-06T05:26:07;21.27;;;13.33;;
17854;SDS011;9053;53.358;6.382;2024-03-06T05:28:51;23.23;;;13.80;;
17854;SDS011;9053;53.358;6.382;2024-03-06T05:31:35;22.57;;;13.27;;
17854;SDS011;9053;53.358;6.382;2024-03-06T05:34:19;22.47;;;13.70;;
17854;SDS011;9053;53.358;6.382;2024-03-06T05:37:02;23.20;;;13.13;;
17854;SDS011;9053;53.358;6.382;2024-03-06T05:39:49;21.73;;;13.20;;
17854;SDS011;9053;53.358;6.382;2024-03-06T05:42:33;21.67;;;12.87;;
17854;SDS011;9053;53.358;6.382;2024-03-06T05:45:17;22.50;;;13.20;;
17854;SDS011;9053;53.358;6.382;2024-03-06T05:48:00;22.03;;;13.37;;
17854;SDS011;9053;53.358;6.382;2024-03-06T05:50:46;23.60;;;13.63;;
17854;SDS011;9053;53.358;6.382;2024-03-06T05:53:29;22.27;;;13.77;;
17854;SDS011;9053;53.358;6.382;2024-03-06T05:56:16;22.27;;;13.43;;
17854;SDS011;9053;53.358;6.382;2024-03-06T05:59:01;25.07;;;14.03;;
17854;SDS011;9053;53.358;6.382;2024-03-06T06:01:34;22.67;;;12.83;;
17854;SDS011;9053;53.358;6.382;2024-03-06T06:04:04;23.87;;;13.33;;
17854;SDS011;9053;53.358;6.382;2024-03-06T06:06:35;23.93;;;13.73;;
17854;SDS011;9053;53.358;6.382;2024-03-06T06:09:06;21.77;;;13.03;;
17854;SDS011;9053;53.358;6.382;2024-03-06T06:11:43;21.17;;;13.27;;
17854;SDS011;9053;53.358;6.382;2024-03-06T06:14:14;23.27;;;13.60;;
17854;SDS011;9053;53.358;6.382;2024-03-06T06:16:44;25.00;;;12.80;;
17854;SDS011;9053;53.358;6.382;2024-03-06T06:19:14;22.73;;;12.53;;
17854;SDS011;9053;53.358;6.382;2024-03-06T06:21:47;22.97;;;13.27;;
17854;SDS011;9053;53.358;6.382;2024-03-06T06:24:17;20.00;;;12.30;;
17854;SDS011;9053;53.358;6.382;2024-03-06T06:26:49;23.70;;;13.57;;
17854;SDS011;9053;53.358;6.382;2024-03-06T06:29:19;24.17;;;13.80;;
17854;SDS011;9053;53.358;6.382;2024-03-06T06:31:49;18.60;;;12.43;;
17854;SDS011;9053;53.358;6.382;2024-03-06T06:34:19;24.43;;;13.57;;
17854;SDS011;9053;53.358;6.382;2024-03-06T06:36:51;22.97;;;13.00;;
17854;SDS011;9053;53.358;6.382;2024-03-06T06:39:22;22.13;;;13.03;;
17854;SDS011;9053;53.358;6.382;2024-03-06T06:41:55;21.03;;;12.83;;
17854;SDS011;9053;53.358;6.382;2024-03-06T06:44:25;19.50;;;12.37;;
17854;SDS011;9053;53.358;6.382;2024-03-06T06:46:55;21.50;;;12.93;;
17854;SDS011;9053;53.358;6.382;2024-03-06T06:49:25;20.67;;;13.30;;
17854;SDS011;9053;53.358;6.382;2024-03-06T06:51:55;23.17;;;13.10;;
17854;SDS011;9053;53.358;6.382;2024-03-06T06:54:26;23.20;;;14.37;;
17854;SDS011;9053;53.358;6.382;2024-03-06T06:56:59;23.50;;;13.33;;
17854;SDS011;9053;53.358;6.382;2024-03-06T06:59:30;22.90;;;13.17;;
17854;SDS011;9053;53.358;6.382;2024-03-06T07:02:00;21.87;;;13.33;;
17854;SDS011;9053;53.358;6.382;2024-03-06T07:04:30;25.10;;;13.10;;
17854;SDS011;9053;53.358;6.382;2024-03-06T07:07:00;23.70;;;13.13;;
17854;SDS011;9053;53.358;6.382;2024-03-06T07:09:30;20.93;;;13.00;;
17854;SDS011;9053;53.358;6.382;2024-03-06T07:12:06;22.87;;;13.07;;
17854;SDS011;9053;53.358;6.382;2024-03-06T07:14:37;20.20;;;12.10;;
17854;SDS011;9053;53.358;6.382;2024-03-06T07:17:07;22.93;;;12.77;;
17854;SDS011;9053;53.358;6.382;2024-03-06T07:19:37;22.40;;;13.17;;
17854;SDS011;9053;53.358;6.382;2024-03-06T07:22:08;22.77;;;13.60;;
17854;SDS011;9053;53.358;6.382;2024-03-06T07:24:38;20.97;;;12.53;;
17854;SDS011;9053;53.358;6.382;2024-03-06T07:27:10;22.30;;;12.43;;
17854;SDS011;9053;53.358;6.382;2024-03-06T07:29:43;20.13;;;12.63;;
17854;SDS011;9053;53.358;6.382;2024-03-06T07:32:13;19.83;;;11.90;;
17854;SDS011;9053;53.358;6.382;2024-03-06T07:34:43;20.20;;;12.30;;
17854;SDS011;9053;53.358;6.382;2024-03-06T07:37:13;21.17;;;12.33;;
17854;SDS011;9053;53.358;6.382;2024-03-06T07:39:46;22.97;;;12.10;;
17854;SDS011;9053;53.358;6.382;2024-03-06T07:42:22;18.50;;;12.23;;
17854;SDS011;9053;53.358;6.382;2024-03-06T07:44:54;23.77;;;12.77;;
17854;SDS011;9053;53.358;6.382;2024-03-06T07:47:24;20.60;;;12.07;;
17854;SDS011;9053;53.358;6.382;2024-03-06T07:49:55;20.93;;;12.60;;
17854;SDS011;9053;53.358;6.382;2024-03-06T07:52:25;22.97;;;13.60;;
17854;SDS011;9053;53.358;6.382;2024-03-06T07:54:56;21.83;;;12.57;;
17854;SDS011;9053;53.358;6.382;2024-03-06T07:57:29;22.77;;;12.93;;
17854;SDS011;9053;53.358;6.382;2024-03-06T07:59:59;21.27;;;12.70;;
17854;SDS011;9053;53.358;6.382;2024-03-06T08:02:35;23.93;;;12.80;;
17854;SDS011;9053;53.358;6.382;2024-03-06T08:05:06;20.77;;;12.17;;
17854;SDS011;9053;53.358;6.382;2024-03-06T08:07:36;22.53;;;13.27;;
17854;SDS011;9053;53.358;6.382;2024-03-06T08:10:08;19.90;;;12.13;;
17854;SDS011;9053;53.358;6.382;2024-03-06T08:12:43;25.47;;;13.60;;
17854;SDS011;9053;53.358;6.382;2024-03-06T08:15:14;24.07;;;12.80;;
17854;SDS011;9053;53.358;6.382;2024-03-06T08:17:44;22.13;;;12.47;;
17854;SDS011;9053;53.358;6.382;2024-03-06T08:20:14;20.43;;;12.43;;
17854;SDS011;9053;53.358;6.382;2024-03-06T08:22:45;21.63;;;13.20;;
17854;SDS011;9053;53.358;6.382;2024-03-06T08:25:15;23.03;;;13.23;;
17854;SDS011;9053;53.358;6.382;2024-03-06T08:27:47;22.20;;;12.70;;
17854;SDS011;9053;53.358;6.382;2024-03-06T08:30:17;23.17;;;13.30;;
17854;SDS011;9053;53.358;6.382;2024-03-06T08:32:48;22.17;;;12.43;;
17854;SDS011;9053;53.358;6.382;2024-03-06T08:35:18;24.07;;;13.20;;
17854;SDS011;9053;53.358;6.382;2024-03-06T08:37:51;22.97;;;12.30;;
17854;SDS011;9053;53.358;6.382;2024-03-06T08:40:21;23.50;;;12.67;;
17854;SDS011;9053;53.358;6.382;2024-03-06T08:42:56;21.17;;;12.70;;
17854;SDS011;9053;53.358;6.382;2024-03-06T08:45:26;22.57;;;13.23;;
17854;SDS011;9053;53.358;6.382;2024-03-06T08:47:56;19.23;;;12.90;;
17854;SDS011;9053;53.358;6.382;2024-03-06T08:50:26;20.33;;;12.87;;
17854;SDS011;9053;53.358;6.382;2024-03-06T08:52:57;20.30;;;13.13;;
17854;SDS011;9053;53.358;6.382;2024-03-06T08:55:28;24.10;;;13.20;;
17854;SDS011;9053;53.358;6.382;2024-03-06T08:58:01;20.83;;;12.23;;
17854;SDS011;9053;53.358;6.382;2024-03-06T09:00:31;20.47;;;12.83;;
17854;SDS011;9053;53.358;6.382;2024-03-06T09:03:01;20.20;;;12.57;;
17854;SDS011;9053;53.358;6.382;2024-03-06T09:05:31;21.57;;;12.60;;
17854;SDS011;9053;53.358;6.382;2024-03-06T09:08:02;22.67;;;13.17;;
17854;SDS011;9053;53.358;6.382;2024-03-06T09:10:35;21.03;;;12.50;;
17854;SDS011;9053;53.358;6.382;2024-03-06T09:13:08;24.73;;;13.00;;
17854;SDS011;9053;53.358;6.382;2024-03-06T09:15:38;21.97;;;12.63;;
17854;SDS011;9053;53.358;6.382;2024-03-06T09:18:08;20.90;;;12.87;;
17854;SDS011;9053;53.358;6.382;2024-03-06T09:20:38;26.40;;;14.20;;
17854;SDS011;9053;53.358;6.382;2024-03-06T09:23:08;23.47;;;13.37;;
17854;SDS011;9053;53.358;6.382;2024-03-06T09:25:38;23.37;;;13.23;;
17854;SDS011;9053;53.358;6.382;2024-03-06T09:28:11;21.40;;;12.70;;
17854;SDS011;9053;53.358;6.382;2024-03-06T09:30:41;22.10;;;12.67;;
17854;SDS011;9053;53.358;6.382;2024-03-06T09:33:11;22.50;;;13.17;;
17854;SDS011;9053;53.358;6.382;2024-03-06T09:35:41;24.97;;;14.07;;
17854;SDS011;9053;53.358;6.382;2024-03-06T09:38:12;23.27;;;13.80;;
17854;SDS011;9053;53.358;6.382;2024-03-06T09:40:47;27.03;;;13.30;;
17854;SDS011;9053;53.358;6.382;2024-03-06T09:43:20;22.27;;;13.13;;
17854;SDS011;9053;53.358;6.382;2024-03-06T09:45:50;24.50;;;13.17;;
17854;SDS011;9053;53.358;6.382;2024-03-06T09:48:21;22.67;;;13.00;;
17854;SDS011;9053;53.358;6.382;2024-03-06T09:50:54;23.53;;;13.73;;
17854;SDS011;9053;53.358;6.382;2024-03-06T09:53:34;22.57;;;12.83;;
17854;SDS011;9053;53.358;6.382;2024-03-06T09:56:05;23.60;;;14.13;;
17854;SDS011;9053;53.358;6.382;2024-03-06T09:58:40;27.57;;;14.40;;
17854;SDS011;9053;53.358;6.382;2024-03-06T10:01:10;22.30;;;13.87;;
17854;SDS011;9053;53.358;6.382;2024-03-06T10:03:42;26.80;;;13.67;;
17854;SDS011;9053;53.358;6.382;2024-03-06T10:06:12;21.30;;;12.67;;
17854;SDS011;9053;53.358;6.382;2024-03-06T10:08:43;22.50;;;13.03;;
17854;SDS011;9053;53.358;6.382;2024-03-06T10:11:13;24.80;;;13.63;;
17854;SDS011;9053;53.358;6.382;2024-03-06T10:13:46;24.90;;;13.77;;
17854;SDS011;9053;53.358;6.382;2024-03-06T10:16:17;25.03;;;14.07;;
17854;SDS011;9053;53.358;6.382;2024-03-06T10:18:48;26.27;;;15.10;;
17854;SDS011;9053;53.358;6.382;2024-03-06T10:21:29;23.50;;;13.57;;
17854;SDS011;9053;53.358;6.382;2024-03-06T10:24:05;24.60;;;14.00;;
17854;SDS011;9053;53.358;6.382;2024-03-06T10:26:36;24.70;;;14.33;;
17854;SDS011;9053;53.358;6.382;2024-03-06T10:29:09;24.93;;;15.17;;
17854;SDS011;9053;53.358;6.382;2024-03-06T10:31:39;25.43;;;14.17;;
17854;SDS011;9053;53.358;6.382;2024-03-06T10:34:14;24.23;;;15.03;;
17854;SDS011;9053;53.358;6.382;2024-03-06T10:36:47;23.20;;;13.37;;
17854;SDS011;9053;53.358;6.382;2024-03-06T10:39:23;22.97;;;14.40;;
17854;SDS011;9053;53.358;6.382;2024-03-06T10:41:54;25.37;;;14.17;;
17854;SDS011;9053;53.358;6.382;2024-03-06T10:44:28;30.70;;;15.47;;
17854;SDS011;9053;53.358;6.382;2024-03-06T10:46:59;25.37;;;13.93;;
17854;SDS011;9053;53.358;6.382;2024-03-06T10:49:30;25.13;;;13.83;;
17854;SDS011;9053;53.358;6.382;2024-03-06T10:52:03;28.17;;;14.63;;
17854;SDS011;9053;53.358;6.382;2024-03-06T10:54:34;24.20;;;14.70;;
17854;SDS011;9053;53.358;6.382;2024-03-06T10:57:08;27.77;;;15.33;;
17854;SDS011;9053;53.358;6.382;2024-03-06T10:59:42;24.03;;;15.07;;
17854;SDS011;9053;53.358;6.382;2024-03-06T11:02:14;25.17;;;13.90;;
17854;SDS011;9053;53.358;6.382;2024-03-06T11:04:52;23.47;;;14.03;;
17854;SDS011;9053;53.358;6.382;2024-03-06T11:07:23;26.90;;;15.47;;
17854;SDS011;9053;53.358;6.382;2024-03-06T11:09:54;23.57;;;14.80;;
17854;SDS011;9053;53.358;6.382;2024-03-06T11:12:35;24.57;;;15.33;;
17854;SDS011;9053;53.358;6.382;2024-03-06T11:15:12;25.30;;;14.63;;
17854;SDS011;9053;53.358;6.382;2024-03-06T11:17:44;27.60;;;14.63;;
17854;SDS011;9053;53.358;6.382;2024-03-06T11:20:16;24.03;;;14.77;;
17854;SDS011;9053;53.358;6.382;2024-03-06T11:23:04;23.03;;;14.70;;
17854;SDS011;9053;53.358;6.382;2024-03-06T11:28:33;25.87;;;15.33;;
17854;SDS011;9053;53.358;6.382;2024-03-06T11:31:07;26.53;;;14.90;;
17854;SDS011;9053;53.358;6.382;2024-03-06T11:33:41;29.40;;;15.43;;
17854;SDS011;9053;53.358;6.382;2024-03-06T11:36:17;28.70;;;15.77;;
17854;SDS011;9053;53.358;6.382;2024-03-06T11:38:47;26.97;;;15.30;;
17854;SDS011;9053;53.358;6.382;2024-03-06T11:41:27;26.43;;;16.07;;
17854;SDS011;9053;53.358;6.382;2024-03-06T11:43:59;27.17;;;15.33;;
17854;SDS011;9053;53.358;6.382;2024-03-06T11:46:44;27.00;;;15.60;;
17854;SDS011;9053;53.358;6.382;2024-03-06T11:49:15;26.13;;;15.77;;
17854;SDS011;9053;53.358;6.382;2024-03-06T11:51:49;27.10;;;15.27;;
17854;SDS011;9053;53.358;6.382;2024-03-06T11:54:20;27.17;;;15.67;;
17854;SDS011;9053;53.358;6.382;2024-03-06T11:56:54;26.17;;;16.17;;
17854;SDS011;9053;53.358;6.382;2024-03-06T11:59:27;25.03;;;15.40;;
17854;SDS011;9053;53.358;6.382;2024-03-06T12:02:00;27.23;;;15.63;;
17854;SDS011;9053;53.358;6.382;2024-03-06T12:04:33;26.43;;;15.37;;
17854;SDS011;9053;53.358;6.382;2024-03-06T12:07:06;27.50;;;16.30;;
17854;SDS011;9053;53.358;6.382;2024-03-06T12:09:38;28.57;;;17.03;;
17854;SDS011;9053;53.358;6.382;2024-03-06T12:12:09;26.77;;;17.27;;
17854;SDS011;9053;53.358;6.382;2024-03-06T12:14:40;26.23;;;15.87;;
17854;SDS011;9053;53.358;6.382;2024-03-06T12:17:15;31.50;;;18.07;;
17854;SDS011;9053;53.358;6.382;2024-03-06T12:19:47;27.70;;;16.43;;
17854;SDS011;9053;53.358;6.382;2024-03-06T12:22:19;27.17;;;17.17;;
17854;SDS011;9053;53.358;6.382;2024-03-06T12:25:00;29.33;;;16.70;;
17854;SDS011;9053;53.358;6.382;2024-03-06T12:27:31;28.13;;;17.27;;
17854;SDS011;9053;53.358;6.382;2024-03-06T12:30:08;31.23;;;17.77;;
17854;SDS011;9053;53.358;6.382;2024-03-06T12:32:42;30.80;;;16.90;;
17854;SDS011;9053;53.358;6.382;2024-03-06T12:35:12;29.37;;;16.20;;
17854;SDS011;9053;53.358;6.382;2024-03-06T12:37:53;30.67;;;17.53;;
17854;SDS011;9053;53.358;6.382;2024-03-06T12:40:23;28.40;;;16.30;;
17854;SDS011;9053;53.358;6.382;2024-03-06T12:42:55;30.20;;;16.93;;
17854;SDS011;9053;53.358;6.382;2024-03-06T12:45:25;27.60;;;17.60;;
17854;SDS011;9053;53.358;6.382;2024-03-06T12:47:57;29.33;;;17.20;;
17854;SDS011;9053;53.358;6.382;2024-03-06T12:50:28;30.70;;;17.63;;
17854;SDS011;9053;53.358;6.382;2024-03-06T12:53:01;29.97;;;18.27;;
17854;SDS011;9053;53.358;6.382;2024-03-06T12:55:31;28.77;;;17.77;;
17854;SDS011;9053;53.358;6.382;2024-03-06T12:58:02;31.83;;;18.43;;
17854;SDS011;9053;53.358;6.382;2024-03-06T13:00:32;29.63;;;16.57;;
17854;SDS011;9053;53.358;6.382;2024-03-06T13:03:05;30.57;;;17.33;;
17854;SDS011;9053;53.358;6.382;2024-03-06T13:05:37;29.63;;;17.67;;
17854;SDS011;9053;53.358;6.382;2024-03-06T13:08:07;31.87;;;18.80;;
17854;SDS011;9053;53.358;6.382;2024-03-06T13:10:40;26.50;;;16.90;;
17854;SDS011;9053;53.358;6.382;2024-03-06T13:13:11;30.73;;;18.00;;
17854;SDS011;9053;53.358;6.382;2024-03-06T13:15:41;30.47;;;19.00;;
17854;SDS011;9053;53.358;6.382;2024-03-06T13:18:16;29.53;;;17.90;;
17854;SDS011;9053;53.358;6.382;2024-03-06T13:20:51;29.80;;;17.47;;
17854;SDS011;9053;53.358;6.382;2024-03-06T13:23:21;31.50;;;18.17;;
17854;SDS011;9053;53.358;6.382;2024-03-06T13:25:51;29.33;;;17.37;;
17854;SDS011;9053;53.358;6.382;2024-03-06T13:28:21;31.60;;;17.47;;
17854;SDS011;9053;53.358;6.382;2024-03-06T13:30:52;32.83;;;17.90;;
17854;SDS011;9053;53.358;6.382;2024-03-06T13:33:25;32.60;;;18.70;;
17854;SDS011;9053;53.358;6.382;2024-03-06T13:35:55;34.97;;;18.57;;
17854;SDS011;9053;53.358;6.382;2024-03-06T13:38:28;30.53;;;17.43;;
17854;SDS011;9053;53.358;6.382;2024-03-06T13:40:58;28.83;;;17.67;;
17854;SDS011;9053;53.358;6.382;2024-03-06T13:43:29;32.17;;;18.07;;
17854;SDS011;9053;53.358;6.382;2024-03-06T13:45:59;32.90;;;18.07;;
17854;SDS011;9053;53.358;6.382;2024-03-06T13:48:32;29.53;;;18.33;;
17854;SDS011;9053;53.358;6.382;2024-03-06T13:51:04;30.97;;;18.30;;
17854;SDS011;9053;53.358;6.382;2024-03-06T13:53:36;31.63;;;18.80;;
17854;SDS011;9053;53.358;6.382;2024-03-06T13:56:06;35.10;;;19.07;;
17854;SDS011;9053;53.358;6.382;2024-03-06T13:58:37;32.60;;;19.07;;
17854;SDS011;9053;53.358;6.382;2024-03-06T14:01:08;29.63;;;18.13;;
17854;SDS011;9053;53.358;6.382;2024-03-06T14:03:42;29.33;;;17.93;;
17854;SDS011;9053;53.358;6.382;2024-03-06T14:06:12;31.80;;;18.47;;
17854;SDS011;9053;53.358;6.382;2024-03-06T14:08:43;39.43;;;18.73;;
17854;SDS011;9053;53.358;6.382;2024-03-06T14:11:13;32.77;;;19.13;;
17854;SDS011;9053;53.358;6.382;2024-03-06T14:13:45;33.47;;;20.17;;
17854;SDS011;9053;53.358;6.382;2024-03-06T14:16:15;31.87;;;18.27;;
17854;SDS011;9053;53.358;6.382;2024-03-06T14:18:48;31.20;;;18.23;;
17854;SDS011;9053;53.358;6.382;2024-03-06T14:21:18;35.03;;;19.10;;
17854;SDS011;9053;53.358;6.382;2024-03-06T14:23:48;34.23;;;20.20;;
17854;SDS011;9053;53.358;6.382;2024-03-06T14:26:18;35.00;;;19.47;;
17854;SDS011;9053;53.358;6.382;2024-03-06T14:28:49;29.00;;;19.10;;
17854;SDS011;9053;53.358;6.382;2024-03-06T14:31:19;36.10;;;20.53;;
17854;SDS011;9053;53.358;6.382;2024-03-06T14:33:52;27.50;;;18.73;;
17854;SDS011;9053;53.358;6.382;2024-03-06T14:36:22;37.13;;;19.67;;
17854;SDS011;9053;53.358;6.382;2024-03-06T14:38:52;34.30;;;21.07;;
17854;SDS011;9053;53.358;6.382;2024-03-06T14:41:22;33.50;;;20.17;;
17854;SDS011;9053;53.358;6.382;2024-03-06T14:43:52;35.13;;;20.37;;
17854;SDS011;9053;53.358;6.382;2024-03-06T14:46:22;33.40;;;19.93;;
17854;SDS011;9053;53.358;6.382;2024-03-06T14:48:55;36.27;;;21.37;;
17854;SDS011;9053;53.358;6.382;2024-03-06T14:51:25;33.57;;;20.83;;
17854;SDS011;9053;53.358;6.382;2024-03-06T14:53:58;32.60;;;20.37;;
17854;SDS011;9053;53.358;6.382;2024-03-06T14:56:28;32.17;;;19.57;;
17854;SDS011;9053;53.358;6.382;2024-03-06T14:58:58;37.67;;;20.60;;
17854;SDS011;9053;53.358;6.382;2024-03-06T15:01:28;35.00;;;20.50;;
17854;SDS011;9053;53.358;6.382;2024-03-06T15:04:02;35.83;;;21.77;;
17854;SDS011;9053;53.358;6.382;2024-03-06T15:06:32;35.60;;;20.53;;
17854;SDS011;9053;53.358;6.382;2024-03-06T15:09:03;34.80;;;20.57;;